Time;durP1;ratioP1;P1;durP2;ratioP2;P2;SDS_P1;SDS_P2;PMS_P1;PMS_P2;Temp;Humidity;BMP_temperature;BMP_pressure;BME280_temperature;BME280_humidity;BME280_pressure;Samples;Min_cycle;Max_cycle;Signal;HPM_P1;HPM_P2
2022/12/04 00:01:29;;;;;;;;;;;3.20;90.60;;;;;;5019316;28;19985;-75
2022/12/04 00:03:55;;;;;;;;;;;3.20;90.60;;;;;;5018593;28;19925;-78
2022/12/04 00:06:21;;;;;;;;;;;3.20;90.70;;;;;;4978536;28;20027;-77
2022/12/04 00:08:47;;;;;;;;;;;3.20;90.70;;;;;;5011878;28;19957;-78
2022/12/04 00:11:13;;;;;;;;;;;3.20;90.70;;;;;;5010563;28;19928;-78
2022/12/04 00:13:39;;;;;;;;;;;3.20;90.70;;;;;;5017815;28;19985;-78
2022/12/04 00:16:05;;;;;;;;;;;3.20;90.60;;;;;;5026298;28;19960;-78
2022/12/04 00:18:30;;;;;;;;;;;3.20;90.60;;;;;;5028352;28;19924;-79
2022/12/04 00:20:56;;;;;;;;;;;3.20;90.70;;;;;;5017722;28;20006;-78
2022/12/04 00:23:21;;;;;;;;;;;3.20;90.70;;;;;;5028539;28;19917;-78
2022/12/04 00:25:47;;;;;;;;;;;3.20;90.70;;;;;;5026510;28;20024;-78
2022/12/04 00:28:16;;;;;;;;;;;3.20;90.70;;;;;;5023992;28;19967;-78
2022/12/04 00:30:42;;;;;;;;;;;3.20;90.70;;;;;;5020461;28;20381;-78
2022/12/04 00:33:08;;;;;;;;;;;3.20;90.70;;;;;;5025291;28;19944;-78
2022/12/04 00:35:34;;;;;;;;;;;3.20;90.70;;;;;;5010909;28;20393;-77
2022/12/04 00:37:59;;;;;;;;;;;3.20;90.70;;;;;;5018687;28;19925;-78
2022/12/04 00:40:25;;;;;;;;;;;3.20;90.70;;;;;;5019204;28;20053;-77
2022/12/04 00:42:50;;;;;;;;;;;3.20;90.70;;;;;;5019956;28;20377;-78
2022/12/04 00:45:16;;;;;;;;;;;3.20;90.70;;;;;;5020928;28;19925;-77
2022/12/04 00:47:41;;;;;;;;;;;3.20;90.70;;;;;;5011522;28;20424;-78
2022/12/04 00:50:07;;;;;;;;;;;3.30;90.70;;;;;;5023575;28;19918;-77
2022/12/04 00:52:32;;;;;;;;;;;3.20;90.60;;;;;;5025082;28;20473;-77
2022/12/04 00:54:58;;;;;;;;;;;3.20;90.60;;;;;;5016364;28;19953;-77
2022/12/04 00:57:23;;;;;;;;;;;3.30;90.70;;;;;;5017884;28;19917;-78
2022/12/04 00:59:50;;;;;;;;;;;3.30;90.70;;;;;;5025095;28;19970;-77
2022/12/04 01:02:15;;;;;;;;;;;3.20;90.60;;;;;;5015732;28;19922;-78
2022/12/04 01:04:41;;;;;;;;;;;3.20;90.60;;;;;;5023397;28;20414;-77
2022/12/04 01:07:06;;;;;;;;;;;3.20;90.60;;;;;;5013515;28;19945;-77
2022/12/04 01:09:32;;;;;;;;;;;3.30;90.70;;;;;;5004976;28;19921;-78
2022/12/04 01:11:57;;;;;;;;;;;3.20;90.60;;;;;;5016763;28;19925;-77
2022/12/04 01:14:23;;;;;;;;;;;3.30;90.70;;;;;;5014551;28;19963;-77
2022/12/04 01:16:48;;;;;;;;;;;3.30;90.60;;;;;;5019610;28;19917;-77
2022/12/04 01:19:14;;;;;;;;;;;3.30;90.60;;;;;;5026093;28;19972;-78
2022/12/04 01:21:39;;;;;;;;;;;3.20;90.60;;;;;;5018993;28;19924;-78
2022/12/04 01:24:05;;;;;;;;;;;3.20;90.60;;;;;;5012773;28;19925;-78
2022/12/04 01:26:30;;;;;;;;;;;3.20;90.60;;;;;;5015304;28;19914;-78
2022/12/04 01:28:56;;;;;;;;;;;3.20;90.60;;;;;;5012411;28;19922;-78
2022/12/04 01:31:22;;;;;;;;;;;3.20;90.60;;;;;;5021608;28;19917;-78
2022/12/04 01:33:47;;;;;;;;;;;3.20;90.60;;;;;;5025661;28;19929;-78
2022/12/04 01:36:14;;;;;;;;;;;3.30;90.70;;;;;;5042123;28;19917;-77
2022/12/04 01:38:39;;;;;;;;;;;3.30;90.70;;;;;;5014296;28;19918;-77
2022/12/04 01:41:05;;;;;;;;;;;3.30;90.40;;;;;;5021129;28;20656;-78
2022/12/04 01:43:31;;;;;;;;;;;3.30;90.70;;;;;;5009292;28;19952;-78
2022/12/04 01:45:57;;;;;;;;;;;3.30;90.70;;;;;;5011671;28;19917;-77
2022/12/04 01:48:26;;;;;;;;;;;3.30;90.70;;;;;;5007605;28;19918;-78
2022/12/04 01:50:53;;;;;;;;;;;3.30;90.70;;;;;;5016609;28;19921;-78
2022/12/04 01:53:19;;;;;;;;;;;3.30;90.70;;;;;;5008221;28;19980;-78
2022/12/04 01:55:44;;;;;;;;;;;3.30;90.70;;;;;;5038704;28;19955;-77
2022/12/04 01:58:10;;;;;;;;;;;3.20;90.60;;;;;;5011768;28;20044;-77
2022/12/04 02:00:35;;;;;;;;;;;3.30;90.70;;;;;;5022239;28;19926;-77
2022/12/04 02:03:01;;;;;;;;;;;3.30;90.70;;;;;;5007892;28;19922;-77
2022/12/04 02:05:26;;;;;;;;;;;3.30;90.60;;;;;;5016516;28;19932;-78
2022/12/04 02:07:52;;;;;;;;;;;3.30;90.70;;;;;;5027016;28;19913;-78
2022/12/04 02:10:23;;;;;;;;;;;3.30;90.70;;;;;;5019605;28;20314;-77
2022/12/04 02:12:58;;;;;;;;;;;3.30;90.70;;;;;;5022383;28;20292;-78
2022/12/04 02:15:26;;;;;;;;;;;3.30;90.70;;;;;;5026303;28;19917;-77
2022/12/04 02:17:57;;;;;;;;;;;3.30;90.60;;;;;;5021241;28;19917;-78
2022/12/04 02:20:23;;;;;;;;;;;3.30;90.60;;;;;;5024240;28;20415;-78
2022/12/04 02:22:51;;;;;;;;;;;3.30;90.60;;;;;;5015930;28;19925;-77
2022/12/04 02:25:26;;;;;;;;;;;3.30;90.70;;;;;;5038502;28;19969;-77
2022/12/04 02:27:57;;;;;;;;;;;3.30;90.60;;;;;;5021502;28;19939;-78
2022/12/04 02:30:23;;;;;;;;;;;3.30;90.60;;;;;;5020925;28;19921;-78
2022/12/04 02:45:42;;;;;;;;;;;3.30;90.60;;;;;;4917209;28;19922;-80
2022/12/04 02:58:19;;;;;;;;;;;;;;;;;;;;;
2022/12/04 03:05:23;;;;;;;;;;;;;;;;;;;;;
2022/12/04 03:17:45;;;;;;;;;;;3.30;90.70;;;;;;4833598;29;20803;-80
2022/12/04 03:20:43;;;;;;;;;;;;;;;;;;;;;
2022/12/04 03:30:14;;;;;;;;;;;;;;;;;;;;;
2022/12/04 03:56:13;;;;;;;;;;;3.30;90.60;;;;;;4797779;29;20131;-80
2022/12/04 04:02:44;;;;;;;;;;;;;;;;;;;;;
2022/12/04 04:24:13;;;;;;;;;;;3.40;90.60;;;;;;4488725;30;5000353;-81
2022/12/04 04:34:44;;;;;;;;;;;;;;;;;;;;;
2022/12/04 04:41:10;;;;;;;;;;;3.40;90.60;;;;;;4818349;29;19990;-80
2022/12/04 04:43:39;;;;;;;;;;;3.40;90.60;;;;;;4930105;23;19972;-77
2022/12/04 04:46:05;;;;;;;;;;;3.30;90.60;;;;;;5044808;28;19932;-77
2022/12/04 04:48:35;;;;;;;;;;;3.30;90.60;;;;;;5053737;28;19913;-76
2022/12/04 04:51:01;;;;;;;;;;;3.30;90.60;;;;;;5047846;28;19995;-76
2022/12/04 04:53:32;;;;;;;;;;;3.30;90.60;;;;;;5055379;28;19921;-77
2022/12/04 04:55:57;;;;;;;;;;;3.40;90.70;;;;;;5051524;28;19920;-75
2022/12/04 04:58:23;;;;;;;;;;;3.40;90.70;;;;;;5033734;28;20724;-76
2022/12/04 05:00:48;;;;;;;;;;;3.40;90.70;;;;;;5054110;28;19994;-77
2022/12/04 05:03:14;;;;;;;;;;;3.40;90.60;;;;;;5040386;28;19921;-76
2022/12/04 05:05:39;;;;;;;;;;;3.30;90.60;;;;;;5044213;28;19998;-76
2022/12/04 05:08:05;;;;;;;;;;;3.40;90.60;;;;;;5050500;28;19970;-77
2022/12/04 05:10:30;;;;;;;;;;;3.30;90.60;;;;;;5049004;28;19956;-76
2022/12/04 05:12:56;;;;;;;;;;;3.30;90.70;;;;;;5053827;28;19921;-76
2022/12/04 05:15:21;;;;;;;;;;;3.40;90.70;;;;;;5042538;28;20375;-76
2022/12/04 05:17:47;;;;;;;;;;;3.40;90.60;;;;;;5035779;28;19928;-75
2022/12/04 05:20:13;;;;;;;;;;;3.40;90.60;;;;;;5046548;28;19936;-77
2022/12/04 05:22:38;;;;;;;;;;;3.30;90.60;;;;;;5056147;28;19924;-76
2022/12/04 05:25:04;;;;;;;;;;;3.40;90.60;;;;;;5052305;28;20379;-75
2022/12/04 05:27:29;;;;;;;;;;;3.40;90.60;;;;;;5035990;28;19930;-77
2022/12/04 05:29:55;;;;;;;;;;;3.40;90.60;;;;;;5035041;28;19999;-76
2022/12/04 05:32:22;;;;;;;;;;;3.40;90.60;;;;;;5041051;28;19928;-78
2022/12/04 05:34:47;;;;;;;;;;;3.40;90.60;;;;;;5043001;28;19917;-76
2022/12/04 05:37:13;;;;;;;;;;;3.40;90.60;;;;;;5034258;28;19917;-77
2022/12/04 05:39:38;;;;;;;;;;;3.40;90.60;;;;;;5033741;28;20451;-77
2022/12/04 05:42:04;;;;;;;;;;;3.40;90.60;;;;;;5042811;28;20007;-77
2022/12/04 05:44:29;;;;;;;;;;;3.40;90.60;;;;;;5043592;28;19921;-78
2022/12/04 05:46:55;;;;;;;;;;;3.40;90.60;;;;;;5065815;28;19921;-77
2022/12/04 05:49:20;;;;;;;;;;;3.40;90.60;;;;;;5036023;28;20006;-78
2022/12/04 05:51:46;;;;;;;;;;;3.40;90.60;;;;;;5061406;28;19929;-78
2022/12/04 05:54:11;;;;;;;;;;;3.40;90.60;;;;;;5044409;28;19914;-77
2022/12/04 05:56:37;;;;;;;;;;;3.40;90.60;;;;;;5053919;28;19912;-77
2022/12/04 05:59:02;;;;;;;;;;;3.40;90.60;;;;;;5040369;28;19913;-77
2022/12/04 06:01:28;;;;;;;;;;;3.50;90.70;;;;;;5036475;28;20865;-77
2022/12/04 06:03:54;;;;;;;;;;;3.40;90.60;;;;;;5048272;28;19961;-78
2022/12/04 06:06:20;;;;;;;;;;;3.40;90.60;;;;;;5038646;28;20032;-78
2022/12/04 06:08:45;;;;;;;;;;;3.40;90.60;;;;;;5042983;28;19976;-77
2022/12/04 06:11:12;;;;;;;;;;;3.50;90.60;;;;;;5056983;28;20555;-77
2022/12/04 06:13:38;;;;;;;;;;;3.40;90.60;;;;;;5054406;28;19952;-78
2022/12/04 06:16:36;;;;;;;;;;;3.50;90.70;;;;;;5016749;28;19927;-77
2022/12/04 06:19:03;;;;;;;;;;;3.50;90.70;;;;;;5040949;28;20530;-78
2022/12/04 06:21:29;;;;;;;;;;;3.50;90.70;;;;;;5046620;28;19952;-78
2022/12/04 06:23:55;;;;;;;;;;;3.50;90.70;;;;;;5061697;28;21226;-78
2022/12/04 06:26:20;;;;;;;;;;;3.50;90.60;;;;;;5074172;28;20261;-78
2022/12/04 06:28:46;;;;;;;;;;;3.50;90.70;;;;;;5028600;28;19998;-78
2022/12/04 06:31:12;;;;;;;;;;;3.50;90.60;;;;;;5030902;28;19924;-77
2022/12/04 06:33:38;;;;;;;;;;;3.50;90.60;;;;;;5025150;28;19944;-78
2022/12/04 06:36:10;;;;;;;;;;;3.50;90.60;;;;;;5043032;28;19917;-79
2022/12/04 06:38:35;;;;;;;;;;;3.50;90.60;;;;;;5033577;28;19924;-78
2022/12/04 06:41:04;;;;;;;;;;;3.50;90.60;;;;;;5030885;28;20346;-77
2022/12/04 06:43:30;;;;;;;;;;;3.50;90.60;;;;;;5057056;28;19936;-78
2022/12/04 06:46:03;;;;;;;;;;;3.50;90.60;;;;;;5053851;28;19921;-78
2022/12/04 06:48:31;;;;;;;;;;;3.50;90.60;;;;;;5030488;28;20438;-79
2022/12/04 06:50:58;;;;;;;;;;;3.50;90.60;;;;;;5035360;28;19996;-77
2022/12/04 06:53:25;;;;;;;;;;;3.50;90.60;;;;;;5023226;28;19924;-78
2022/12/04 06:55:51;;;;;;;;;;;3.50;90.70;;;;;;5049610;28;19923;-78
2022/12/04 06:58:16;;;;;;;;;;;3.50;90.70;;;;;;5072234;28;19953;-76
2022/12/04 07:00:42;;;;;;;;;;;3.50;90.70;;;;;;5058352;28;19923;-76
2022/12/04 07:03:07;;;;;;;;;;;3.50;90.70;;;;;;5060928;28;19923;-77
2022/12/04 07:05:33;;;;;;;;;;;3.50;90.60;;;;;;5058494;28;20099;-76
2022/12/04 07:07:58;;;;;;;;;;;3.50;90.60;;;;;;5036864;28;19927;-77
2022/12/04 07:10:24;;;;;;;;;;;3.50;90.60;;;;;;5060879;28;19921;-76
2022/12/04 07:12:49;;;;;;;;;;;3.50;90.70;;;;;;5041586;28;19929;-77
2022/12/04 07:15:15;;;;;;;;;;;3.50;90.60;;;;;;5057386;28;19917;-78
2022/12/04 07:17:44;;;;;;;;;;;3.40;90.60;;;;;;5060399;28;19921;-76
2022/12/04 07:20:09;;;;;;;;;;;3.40;90.60;;;;;;5055253;28;20003;-77
2022/12/04 07:22:35;;;;;;;;;;;3.40;90.60;;;;;;5070905;28;20042;-76
2022/12/04 07:25:03;;;;;;;;;;;3.40;90.60;;;;;;5054360;28;20116;-76
2022/12/04 07:27:31;;;;;;;;;;;3.40;90.60;;;;;;5054929;28;19924;-78
2022/12/04 07:29:57;;;;;;;;;;;3.50;90.70;;;;;;5058691;28;19920;-77
2022/12/04 07:32:22;;;;;;;;;;;3.40;90.60;;;;;;5072448;28;19909;-77
2022/12/04 07:34:47;;;;;;;;;;;3.40;90.60;;;;;;5058895;28;19917;-77
2022/12/04 07:37:13;;;;;;;;;;;3.50;90.70;;;;;;5033548;28;19917;-77
2022/12/04 07:39:38;;;;;;;;;;;3.50;90.60;;;;;;5058911;28;19984;-77
2022/12/04 07:42:04;;;;;;;;;;;3.50;90.60;;;;;;5037764;28;20803;-78
2022/12/04 07:44:30;;;;;;;;;;;3.50;90.60;;;;;;5054906;28;19925;-76
2022/12/04 07:46:56;;;;;;;;;;;3.50;90.60;;;;;;5042560;28;19923;-77
2022/12/04 07:49:21;;;;;;;;;;;3.50;90.60;;;;;;5053963;28;19917;-76
2022/12/04 07:51:47;;;;;;;;;;;3.50;90.70;;;;;;5058493;28;20588;-76
2022/12/04 07:54:12;;;;;;;;;;;3.50;90.60;;;;;;5068875;28;19917;-76
2022/12/04 07:56:38;;;;;;;;;;;3.50;90.60;;;;;;5057522;28;19923;-78
2022/12/04 07:59:03;;;;;;;;;;;3.50;90.60;;;;;;5074581;28;19976;-77
2022/12/04 08:01:29;;;;;;;;;;;3.50;90.70;;;;;;5057032;28;19924;-79
2022/12/04 08:03:55;;;;;;;;;;;3.50;90.60;;;;;;5046751;28;19928;-77
2022/12/04 08:06:21;;;;;;;;;;;3.50;90.60;;;;;;5056361;28;19920;-77
2022/12/04 08:08:47;;;;;;;;;;;3.50;90.60;;;;;;5042075;28;19979;-78
2022/12/04 08:11:14;;;;;;;;;;;3.60;90.60;;;;;;5042096;28;19968;-76
2022/12/04 08:13:40;;;;;;;;;;;3.50;90.60;;;;;;5041594;28;20425;-77
2022/12/04 08:16:06;;;;;;;;;;;3.60;90.60;;;;;;5039087;28;19925;-79
2022/12/04 08:18:31;;;;;;;;;;;3.60;90.60;;;;;;5050202;28;19931;-78
2022/12/04 08:21:02;;;;;;;;;;;3.60;90.60;;;;;;5035068;28;20363;-77
2022/12/04 08:23:28;;;;;;;;;;;3.60;90.60;;;;;;5049909;28;19940;-79
2022/12/04 08:25:56;;;;;;;;;;;3.60;90.60;;;;;;5050139;28;20536;-78
2022/12/04 08:28:21;;;;;;;;;;;3.60;90.60;;;;;;5053979;28;19917;-78
2022/12/04 08:30:47;;;;;;;;;;;3.60;90.60;;;;;;5034393;28;19924;-78
2022/12/04 08:33:12;;;;;;;;;;;3.60;90.60;;;;;;5063138;28;20015;-79
2022/12/04 08:35:38;;;;;;;;;;;3.60;90.60;;;;;;5059105;28;19927;-78
2022/12/04 08:38:03;;;;;;;;;;;3.60;90.60;;;;;;5040218;28;19920;-78
2022/12/04 08:40:29;;;;;;;;;;;3.60;90.60;;;;;;5052108;28;20301;-78
2022/12/04 08:42:54;;;;;;;;;;;3.60;90.60;;;;;;5043216;28;19931;-79
2022/12/04 08:45:20;;;;;;;;;;;3.70;90.60;;;;;;5061141;28;19920;-77
2022/12/04 08:47:45;;;;;;;;;;;3.70;90.60;;;;;;5065861;28;19920;-77
2022/12/04 08:50:11;;;;;;;;;;;3.70;90.60;;;;;;5067798;28;20014;-77
2022/12/04 08:52:36;;;;;;;;;;;3.70;90.60;;;;;;5071112;28;19925;-78
2022/12/04 08:55:02;;;;;;;;;;;3.70;90.60;;;;;;5070146;28;19927;-76
2022/12/04 08:57:27;;;;;;;;;;;3.70;90.60;;;;;;5051898;28;20012;-78
2022/12/04 08:59:53;;;;;;;;;;;3.80;90.60;;;;;;5049979;28;19923;-76
2022/12/04 09:02:18;;;;;;;;;;;3.70;90.60;;;;;;5056364;28;19978;-77
2022/12/04 09:04:43;;;;;;;;;;;3.80;90.60;;;;;;5069880;28;19927;-78
2022/12/04 09:07:09;;;;;;;;;;;3.80;90.60;;;;;;5035080;28;20537;-76
2022/12/04 09:09:34;;;;;;;;;;;3.80;90.60;;;;;;5061512;28;21329;-78
2022/12/04 09:12:00;;;;;;;;;;;3.80;90.60;;;;;;5060922;28;20558;-78
2022/12/04 09:14:25;;;;;;;;;;;3.80;90.60;;;;;;5057471;28;19913;-79
2022/12/04 09:16:51;;;;;;;;;;;3.80;90.60;;;;;;5063758;28;19912;-78
2022/12/04 09:19:17;;;;;;;;;;;3.80;90.60;;;;;;5056413;28;20451;-76
2022/12/04 09:21:43;;;;;;;;;;;3.90;90.60;;;;;;5054925;28;19913;-78
2022/12/04 09:24:08;;;;;;;;;;;3.90;90.60;;;;;;5054739;28;20026;-79
2022/12/04 09:26:34;;;;;;;;;;;3.90;90.60;;;;;;5079290;28;19916;-77
2022/12/04 09:29:00;;;;;;;;;;;3.90;90.50;;;;;;5065004;28;19973;-78
2022/12/04 09:31:25;;;;;;;;;;;3.90;90.50;;;;;;5051728;28;19921;-77
2022/12/04 09:33:51;;;;;;;;;;;3.90;90.50;;;;;;5058491;28;19924;-78
2022/12/04 09:36:16;;;;;;;;;;;4.00;90.60;;;;;;5064681;28;20462;-78
2022/12/04 09:38:46;;;;;;;;;;;4.00;90.60;;;;;;5035614;28;19931;-77
2022/12/04 09:41:30;;;;;;;;;;;4.00;90.50;;;;;;5049734;28;19939;-76
2022/12/04 09:43:56;;;;;;;;;;;4.00;90.50;;;;;;5060287;28;19930;-79
2022/12/04 09:46:25;;;;;;;;;;;4.00;90.50;;;;;;5062574;28;19960;-78
2022/12/04 09:48:51;;;;;;;;;;;4.00;90.50;;;;;;5026955;28;20568;-78
2022/12/04 09:51:17;;;;;;;;;;;4.10;90.50;;;;;;5067505;28;19984;-79
2022/12/04 09:53:53;;;;;;;;;;;4.10;90.50;;;;;;5066595;28;19931;-78
2022/12/04 09:56:19;;;;;;;;;;;4.10;90.50;;;;;;5082075;28;19905;-78
2022/12/04 09:59:03;;;;;;;;;;;4.10;90.50;;;;;;5039715;28;19942;-77
2022/12/04 10:01:38;;;;;;;;;;;4.20;90.50;;;;;;5077348;28;19940;-77
2022/12/04 10:04:04;;;;;;;;;;;4.20;90.50;;;;;;5051743;28;19924;-77
2022/12/04 10:06:31;;;;;;;;;;;4.20;90.50;;;;;;5061412;28;19917;-77
2022/12/04 10:08:59;;;;;;;;;;;4.20;90.50;;;;;;5064828;28;19908;-78
2022/12/04 10:11:24;;;;;;;;;;;4.20;90.50;;;;;;5051801;28;20124;-77
2022/12/04 10:13:55;;;;;;;;;;;4.30;90.50;;;;;;5049662;28;19917;-78
2022/12/04 10:16:21;;;;;;;;;;;4.30;90.50;;;;;;5069392;28;19924;-78
2022/12/04 10:18:49;;;;;;;;;;;4.30;90.50;;;;;;5075438;28;19923;-80
2022/12/04 10:21:30;;;;;;;;;;;4.30;90.50;;;;;;5061273;28;20566;-77
2022/12/04 10:24:09;;;;;;;;;;;4.30;90.40;;;;;;5064981;28;19924;-76
2022/12/04 10:26:36;;;;;;;;;;;4.30;90.50;;;;;;5064316;28;19975;-77
2022/12/04 10:29:02;;;;;;;;;;;4.30;90.50;;;;;;5050062;28;19928;-78
2022/12/04 10:31:28;;;;;;;;;;;4.30;90.40;;;;;;5060941;28;19927;-77
2022/12/04 10:33:55;;;;;;;;;;;4.30;90.50;;;;;;5031543;28;19920;-77
2022/12/04 10:36:20;;;;;;;;;;;4.30;90.40;;;;;;5036484;28;20395;-76
2022/12/04 10:38:48;;;;;;;;;;;4.30;90.40;;;;;;5032456;28;19917;-77
2022/12/04 10:41:27;;;;;;;;;;;4.30;90.40;;;;;;5002981;28;20167;-76
2022/12/04 10:43:52;;;;;;;;;;;4.30;90.40;;;;;;5002083;28;19924;-76
2022/12/04 10:46:22;;;;;;;;;;;4.30;90.50;;;;;;5062039;28;20366;-77
2022/12/04 10:48:48;;;;;;;;;;;4.30;90.50;;;;;;5039610;28;19924;-78
2022/12/04 10:51:14;;;;;;;;;;;4.30;90.50;;;;;;5031916;28;19917;-78
2022/12/04 10:53:40;;;;;;;;;;;4.30;90.50;;;;;;5071159;28;19924;-76
2022/12/04 10:56:26;;;;;;;;;;;4.30;90.50;;;;;;5038638;28;19928;-77
2022/12/04 10:58:55;;;;;;;;;;;4.30;90.50;;;;;;5053201;28;19988;-79
2022/12/04 11:01:21;;;;;;;;;;;4.30;90.50;;;;;;5056499;28;19963;-78
2022/12/04 11:03:52;;;;;;;;;;;4.30;90.50;;;;;;5061205;28;20390;-77
2022/12/04 11:06:22;;;;;;;;;;;4.30;90.40;;;;;;5055419;28;20043;-78
2022/12/04 11:08:48;;;;;;;;;;;4.40;90.40;;;;;;5057325;28;19928;-78
2022/12/04 11:11:13;;;;;;;;;;;4.40;90.40;;;;;;5041010;28;19932;-77
2022/12/04 11:13:39;;;;;;;;;;;4.40;90.50;;;;;;5046929;28;20572;-79
2022/12/04 11:16:05;;;;;;;;;;;4.40;90.40;;;;;;5055811;28;19931;-78
2022/12/04 11:18:31;;;;;;;;;;;4.40;90.40;;;;;;5039877;28;19921;-77
2022/12/04 11:20:58;;;;;;;;;;;4.40;90.40;;;;;;5045646;28;20390;-78
2022/12/04 11:23:23;;;;;;;;;;;4.40;90.40;;;;;;5057805;28;19997;-76
2022/12/04 11:25:49;;;;;;;;;;;4.40;90.40;;;;;;5056007;28;20414;-77
2022/12/04 11:28:16;;;;;;;;;;;4.40;90.40;;;;;;5053812;28;21121;-76
2022/12/04 11:30:45;;;;;;;;;;;4.40;90.50;;;;;;5040238;28;20534;-73
2022/12/04 11:33:15;;;;;;;;;;;4.40;90.40;;;;;;5020181;28;20309;-77
2022/12/04 11:35:41;;;;;;;;;;;4.40;90.40;;;;;;5028020;28;19923;-78
2022/12/04 11:38:11;;;;;;;;;;;4.40;90.40;;;;;;5059232;28;20009;-78
2022/12/04 11:40:37;;;;;;;;;;;4.40;90.40;;;;;;5056489;28;19974;-76
2022/12/04 11:43:03;;;;;;;;;;;4.40;90.40;;;;;;5033099;28;19929;-78
2022/12/04 11:45:29;;;;;;;;;;;4.40;90.40;;;;;;5036421;28;19929;-77
2022/12/04 11:47:55;;;;;;;;;;;4.40;90.40;;;;;;5041625;28;20401;-77
2022/12/04 11:50:20;;;;;;;;;;;4.40;90.40;;;;;;5051112;28;19977;-73
2022/12/04 11:52:52;;;;;;;;;;;4.40;90.40;;;;;;5050711;28;19921;-77
2022/12/04 11:55:20;;;;;;;;;;;4.40;90.40;;;;;;5021251;28;22349;-77
2022/12/04 11:58:09;;;;;;;;;;;4.40;90.40;;;;;;5035149;28;20340;-77
2022/12/04 12:00:35;;;;;;;;;;;4.50;90.40;;;;;;5023412;28;19924;-78
2022/12/04 12:03:20;;;;;;;;;;;4.50;90.40;;;;;;5034479;28;19971;-77
2022/12/04 12:05:54;;;;;;;;;;;4.50;90.40;;;;;;5051890;28;20394;-77
2022/12/04 12:08:39;;;;;;;;;;;4.50;90.40;;;;;;5046248;28;19964;-75
2022/12/04 12:11:04;;;;;;;;;;;4.50;90.40;;;;;;5041713;28;19921;-77
2022/12/04 12:13:43;;;;;;;;;;;4.50;90.40;;;;;;5045566;28;19943;-77
2022/12/04 12:16:16;;;;;;;;;;;4.50;90.40;;;;;;5007828;28;19971;-75
2022/12/04 12:19:01;;;;;;;;;;;4.50;90.40;;;;;;5038159;28;19923;-78
2022/12/04 12:21:30;;;;;;;;;;;4.50;90.40;;;;;;5010509;28;20012;-76
2022/12/04 12:24:02;;;;;;;;;;;4.50;90.40;;;;;;5054875;28;19917;-75
2022/12/04 12:26:32;;;;;;;;;;;4.50;90.40;;;;;;5035794;28;20401;-77
2022/12/04 12:29:16;;;;;;;;;;;4.50;90.40;;;;;;5058768;28;19925;-75
2022/12/04 12:32:01;;;;;;;;;;;4.60;90.40;;;;;;5033199;28;20781;-76
2022/12/04 12:34:33;;;;;;;;;;;4.50;90.40;;;;;;5019302;28;19925;-76
2022/12/04 12:36:58;;;;;;;;;;;4.60;90.40;;;;;;5029441;28;19925;-76
2022/12/04 12:39:25;;;;;;;;;;;4.60;90.40;;;;;;5034242;28;20002;-76
2022/12/04 12:41:51;;;;;;;;;;;4.60;90.40;;;;;;5044999;28;20625;-77
2022/12/04 12:44:19;;;;;;;;;;;4.60;90.40;;;;;;5018985;28;20005;-77
2022/12/04 12:46:51;;;;;;;;;;;4.60;90.40;;;;;;5043058;28;19920;-76
2022/12/04 12:49:19;;;;;;;;;;;4.60;90.40;;;;;;5044312;28;19925;-77
2022/12/04 12:51:50;;;;;;;;;;;4.60;90.30;;;;;;5043638;28;19928;-77
2022/12/04 12:54:34;;;;;;;;;;;4.60;90.30;;;;;;5025830;28;20010;-75
2022/12/04 12:57:18;;;;;;;;;;;4.60;90.40;;;;;;5031329;28;20454;-78
2022/12/04 12:59:51;;;;;;;;;;;4.60;90.30;;;;;;5025152;28;19928;-77
2022/12/04 13:02:27;;;;;;;;;;;4.60;90.30;;;;;;5034381;28;20057;-77
2022/12/04 13:04:54;;;;;;;;;;;4.70;90.40;;;;;;5037529;28;20008;-76
2022/12/04 13:07:22;;;;;;;;;;;4.70;90.30;;;;;;5045009;28;19920;-77
2022/12/04 13:09:51;;;;;;;;;;;4.70;90.30;;;;;;5036077;28;20507;-76
2022/12/04 13:12:17;;;;;;;;;;;4.70;90.40;;;;;;5046296;28;19931;-77
2022/12/04 13:14:42;;;;;;;;;;;4.70;90.30;;;;;;5028973;28;19921;-76
2022/12/04 13:17:17;;;;;;;;;;;4.70;90.40;;;;;;5020645;28;20382;-76
2022/12/04 13:19:45;;;;;;;;;;;4.70;90.30;;;;;;5056019;28;19925;-75
2022/12/04 13:22:49;;;;;;;;;;;4.70;90.40;;;;;;5030432;28;19927;-76
2022/12/04 13:25:14;;;;;;;;;;;4.70;90.40;;;;;;5004088;28;20053;-71
2022/12/04 13:27:40;;;;;;;;;;;4.70;90.30;;;;;;4994806;28;20652;-77
2022/12/04 13:30:18;;;;;;;;;;;4.70;90.40;;;;;;5013287;28;20527;-76
2022/12/04 13:32:50;;;;;;;;;;;4.70;90.40;;;;;;5048331;28;20330;-75
2022/12/04 13:35:34;;;;;;;;;;;4.70;90.40;;;;;;5034424;28;19916;-75
2022/12/04 13:38:07;;;;;;;;;;;4.70;90.40;;;;;;5033407;28;19927;-75
2022/12/04 13:40:34;;;;;;;;;;;4.70;90.30;;;;;;5048147;28;19912;-76
2022/12/04 13:43:15;;;;;;;;;;;4.70;90.30;;;;;;5034036;28;20003;-77
2022/12/04 13:45:43;;;;;;;;;;;4.70;90.30;;;;;;5008858;28;19917;-76
2022/12/04 13:48:08;;;;;;;;;;;4.70;90.40;;;;;;5021298;28;20205;-76
2022/12/04 13:50:34;;;;;;;;;;;4.70;90.30;;;;;;5037264;28;20404;-77
2022/12/04 13:53:00;;;;;;;;;;;4.70;90.30;;;;;;5052835;28;20050;-75
2022/12/04 13:55:35;;;;;;;;;;;4.70;90.30;;;;;;5048703;28;20474;-76
2022/12/04 13:58:10;;;;;;;;;;;4.70;90.30;;;;;;5029153;28;19917;-76
2022/12/04 14:00:35;;;;;;;;;;;4.70;90.30;;;;;;5054411;28;19925;-77
2022/12/04 14:03:21;;;;;;;;;;;4.70;90.30;;;;;;5042339;28;19924;-77
2022/12/04 14:05:47;;;;;;;;;;;4.70;90.30;;;;;;5040169;28;19924;-78
2022/12/04 14:08:18;;;;;;;;;;;4.80;90.30;;;;;;5041078;28;19916;-76
2022/12/04 14:10:44;;;;;;;;;;;4.70;90.30;;;;;;5040217;28;19917;-77
2022/12/04 14:13:17;;;;;;;;;;;4.70;90.30;;;;;;5043947;28;20310;-76
2022/12/04 14:15:42;;;;;;;;;;;4.70;90.30;;;;;;5041693;28;19956;-76
2022/12/04 14:18:07;;;;;;;;;;;4.70;90.30;;;;;;5042510;28;20569;-77
2022/12/04 14:20:33;;;;;;;;;;;4.70;90.30;;;;;;5046222;28;19925;-76
2022/12/04 14:23:07;;;;;;;;;;;4.70;90.30;;;;;;5020861;28;20015;-75
2022/12/04 14:25:36;;;;;;;;;;;4.70;90.40;;;;;;5046779;28;19971;-78
2022/12/04 14:28:21;;;;;;;;;;;4.70;90.30;;;;;;5035202;28;19925;-77
2022/12/04 14:30:52;;;;;;;;;;;4.70;90.30;;;;;;5041811;28;19928;-77
2022/12/04 14:33:19;;;;;;;;;;;4.70;90.30;;;;;;5049716;28;20729;-77
2022/12/04 14:35:47;;;;;;;;;;;4.70;90.30;;;;;;5037022;28;19917;-75
2022/12/04 14:38:19;;;;;;;;;;;4.70;90.30;;;;;;5034281;28;19925;-75
2022/12/04 14:40:47;;;;;;;;;;;4.70;90.30;;;;;;5051066;28;19971;-76
2022/12/04 14:43:17;;;;;;;;;;;4.70;90.30;;;;;;5031566;28;19929;-75
2022/12/04 14:45:51;;;;;;;;;;;4.70;90.30;;;;;;5039357;28;19925;-77
2022/12/04 14:48:23;;;;;;;;;;;4.70;90.30;;;;;;5034807;28;19917;-76
2022/12/04 14:51:08;;;;;;;;;;;4.70;90.30;;;;;;5036377;28;19921;-75
2022/12/04 14:53:34;;;;;;;;;;;4.70;90.30;;;;;;5052040;28;19960;-78
2022/12/04 14:56:18;;;;;;;;;;;4.70;90.30;;;;;;5037517;28;19921;-76
2022/12/04 14:58:44;;;;;;;;;;;4.70;90.30;;;;;;5048073;28;19921;-77
2022/12/04 15:01:22;;;;;;;;;;;4.70;90.30;;;;;;5054873;28;20519;-76
2022/12/04 15:03:48;;;;;;;;;;;4.70;90.30;;;;;;5063957;28;19904;-76
2022/12/04 15:06:16;;;;;;;;;;;4.70;90.30;;;;;;5038158;28;19921;-76
2022/12/04 15:08:49;;;;;;;;;;;4.70;90.30;;;;;;5044381;28;20518;-77
2022/12/04 15:14:12;;;;;;;;;;;4.70;90.30;;;;;;5052394;28;19995;-75
2022/12/04 15:16:37;;;;;;;;;;;4.70;90.30;;;;;;5058348;28;19920;-77
2022/12/04 15:19:03;;;;;;;;;;;4.70;90.30;;;;;;5054087;28;20347;-76
2022/12/04 15:21:38;;;;;;;;;;;4.70;90.30;;;;;;5054167;28;19993;-75
2022/12/04 15:24:08;;;;;;;;;;;4.70;90.30;;;;;;5052718;28;20004;-75
2022/12/04 15:26:33;;;;;;;;;;;4.70;90.30;;;;;;5057886;28;19917;-75
2022/12/04 15:28:59;;;;;;;;;;;4.70;90.30;;;;;;5056469;28;20402;-76
2022/12/04 15:31:25;;;;;;;;;;;4.70;90.70;;;;;;5053939;28;19921;-76
2022/12/04 15:33:51;;;;;;;;;;;4.70;90.30;;;;;;5052689;28;19924;-76
2022/12/04 15:36:28;;;;;;;;;;;4.70;90.30;;;;;;5036211;28;19920;-71
2022/12/04 15:38:54;;;;;;;;;;;4.70;90.30;;;;;;5054140;28;19924;-76
2022/12/04 15:41:35;;;;;;;;;;;4.70;90.30;;;;;;5053832;28;19916;-73
2022/12/04 15:44:01;;;;;;;;;;;4.70;90.30;;;;;;5040882;28;19924;-77
2022/12/04 15:46:33;;;;;;;;;;;4.70;90.30;;;;;;5039199;28;20055;-75
2022/12/04 15:49:05;;;;;;;;;;;4.70;90.30;;;;;;5034518;28;20243;-75
2022/12/04 15:51:31;;;;;;;;;;;4.70;90.30;;;;;;5053049;28;19916;-76
2022/12/04 15:53:56;;;;;;;;;;;4.70;90.30;;;;;;5056882;28;19935;-78
2022/12/04 15:56:23;;;;;;;;;;;4.70;90.30;;;;;;5054785;28;19977;-75
2022/12/04 15:58:59;;;;;;;;;;;4.70;90.30;;;;;;5015746;28;19916;-77
2022/12/04 16:01:24;;;;;;;;;;;4.70;90.30;;;;;;5027921;28;19920;-76
2022/12/04 16:03:50;;;;;;;;;;;4.70;90.30;;;;;;5051277;28;19920;-77
2022/12/04 16:06:26;;;;;;;;;;;4.70;90.30;;;;;;5052682;28;19924;-75
2022/12/04 16:08:58;;;;;;;;;;;4.70;90.30;;;;;;5047103;28;19947;-76
2022/12/04 16:11:24;;;;;;;;;;;4.70;90.30;;;;;;5017107;28;19963;-76
2022/12/04 16:14:01;;;;;;;;;;;4.60;90.30;;;;;;5029973;28;20568;-78
2022/12/04 16:16:26;;;;;;;;;;;4.70;90.30;;;;;;5044392;28;20494;-77
2022/12/04 16:18:52;;;;;;;;;;;4.70;90.30;;;;;;5057596;28;20393;-76
2022/12/04 16:21:18;;;;;;;;;;;4.70;90.30;;;;;;5051286;28;19959;-76
2022/12/04 16:23:43;;;;;;;;;;;4.70;90.70;;;;;;5019512;28;19917;-77
2022/12/04 16:26:12;;;;;;;;;;;4.70;90.30;;;;;;5027864;28;19920;-75
2022/12/04 16:28:38;;;;;;;;;;;4.70;90.30;;;;;;5039020;28;19921;-76